sensor_id;sensor_type;location;lat;lon;timestamp;temperature;humidity
17483;DHT22;8858;52.308;20.994;2023-05-10T00:01:04;10.70;97.60
17483;DHT22;8858;52.308;20.994;2023-05-10T00:03:33;10.70;97.30
17483;DHT22;8858;52.308;20.994;2023-05-10T00:06:02;10.70;97.40
17483;DHT22;8858;52.308;20.994;2023-05-10T00:08:30;10.70;97.10
17483;DHT22;8858;52.308;20.994;2023-05-10T00:11:02;10.70;97.00
17483;DHT22;8858;52.308;20.994;2023-05-10T00:13:31;10.70;97.30
17483;DHT22;8858;52.308;20.994;2023-05-10T00:15:59;10.70;97.60
17483;DHT22;8858;52.308;20.994;2023-05-10T00:18:28;10.60;97.60
17483;DHT22;8858;52.308;20.994;2023-05-10T00:20:57;10.60;97.80
17483;DHT22;8858;52.308;20.994;2023-05-10T00:23:28;10.50;98.10
17483;DHT22;8858;52.308;20.994;2023-05-10T00:25:56;10.60;97.70
17483;DHT22;8858;52.308;20.994;2023-05-10T00:28:27;10.50;98.50
17483;DHT22;8858;52.308;20.994;2023-05-10T00:30:56;10.50;98.30
17483;DHT22;8858;52.308;20.994;2023-05-10T00:33:24;10.50;98.00
17483;DHT22;8858;52.308;20.994;2023-05-10T00:35:55;10.50;98.00
17483;DHT22;8858;52.308;20.994;2023-05-10T00:38:26;10.40;97.90
17483;DHT22;8858;52.308;20.994;2023-05-10T00:40:56;10.40;98.10
17483;DHT22;8858;52.308;20.994;2023-05-10T00:43:30;10.40;98.00
17483;DHT22;8858;52.308;20.994;2023-05-10T00:45:59;10.30;99.40
17483;DHT22;8858;52.308;20.994;2023-05-10T00:48:28;10.20;98.60
17483;DHT22;8858;52.308;20.994;2023-05-10T00:50:57;10.20;98.40
17483;DHT22;8858;52.308;20.994;2023-05-10T00:53:26;10.10;98.90
17483;DHT22;8858;52.308;20.994;2023-05-10T00:55:55;10.10;99.00
17483;DHT22;8858;52.308;20.994;2023-05-10T00:58:24;10.00;99.40
17483;DHT22;8858;52.308;20.994;2023-05-10T01:00:56;10.00;99.00
17483;DHT22;8858;52.308;20.994;2023-05-10T01:03:25;10.10;98.80
17483;DHT22;8858;52.308;20.994;2023-05-10T01:05:55;10.10;99.50
17483;DHT22;8858;52.308;20.994;2023-05-10T01:08:23;10.10;99.60
17483;DHT22;8858;52.308;20.994;2023-05-10T01:10:53;10.10;99.60
17483;DHT22;8858;52.308;20.994;2023-05-10T01:13:31;10.10;99.00
17483;DHT22;8858;52.308;20.994;2023-05-10T01:16:01;10.10;98.40
17483;DHT22;8858;52.308;20.994;2023-05-10T01:18:33;10.10;98.30
17483;DHT22;8858;52.308;20.994;2023-05-10T01:21:17;10.10;98.50
17483;DHT22;8858;52.308;20.994;2023-05-10T01:24:19;10.10;98.50
17483;DHT22;8858;52.308;20.994;2023-05-10T01:27:20;10.10;98.10
17483;DHT22;8858;52.308;20.994;2023-05-10T01:30:05;10.10;97.50
17483;DHT22;8858;52.308;20.994;2023-05-10T01:32:52;10.20;97.80
17483;DHT22;8858;52.308;20.994;2023-05-10T01:35:32;10.20;97.50
17483;DHT22;8858;52.308;20.994;2023-05-10T01:38:10;10.10;97.80
17483;DHT22;8858;52.308;20.994;2023-05-10T01:40:42;10.10;97.30
17483;DHT22;8858;52.308;20.994;2023-05-10T01:43:19;10.10;97.10
17483;DHT22;8858;52.308;20.994;2023-05-10T01:46:00;10.20;96.70
17483;DHT22;8858;52.308;20.994;2023-05-10T01:48:41;10.20;96.60
17483;DHT22;8858;52.308;20.994;2023-05-10T01:51:19;10.20;96.80
17483;DHT22;8858;52.308;20.994;2023-05-10T01:53:54;10.20;96.80
17483;DHT22;8858;52.308;20.994;2023-05-10T01:56:26;10.20;96.90
17483;DHT22;8858;52.308;20.994;2023-05-10T01:58:56;10.10;97.50
17483;DHT22;8858;52.308;20.994;2023-05-10T02:01:27;10.10;97.80
17483;DHT22;8858;52.308;20.994;2023-05-10T02:03:59;10.10;97.10
17483;DHT22;8858;52.308;20.994;2023-05-10T02:06:30;10.00;97.20
17483;DHT22;8858;52.308;20.994;2023-05-10T02:09:00;10.10;97.00
17483;DHT22;8858;52.308;20.994;2023-05-10T02:11:30;10.10;97.10
17483;DHT22;8858;52.308;20.994;2023-05-10T02:14:00;10.00;97.80
17483;DHT22;8858;52.308;20.994;2023-05-10T02:16:31;10.00;97.60
17483;DHT22;8858;52.308;20.994;2023-05-10T02:19:02;9.90;97.40
17483;DHT22;8858;52.308;20.994;2023-05-10T02:21:33;9.90;97.10
17483;DHT22;8858;52.308;20.994;2023-05-10T02:24:06;9.90;97.30
17483;DHT22;8858;52.308;20.994;2023-05-10T02:26:36;9.80;98.00
17483;DHT22;8858;52.308;20.994;2023-05-10T02:29:06;9.80;97.70
17483;DHT22;8858;52.308;20.994;2023-05-10T02:31:36;9.80;98.30
17483;DHT22;8858;52.308;20.994;2023-05-10T02:34:10;9.80;98.90
17483;DHT22;8858;52.308;20.994;2023-05-10T02:36:40;9.70;99.30
17483;DHT22;8858;52.308;20.994;2023-05-10T02:39:10;9.60;99.90
17483;DHT22;8858;52.308;20.994;2023-05-10T02:41:44;9.50;99.90
17483;DHT22;8858;52.308;20.994;2023-05-10T02:44:18;9.40;99.90
17483;DHT22;8858;52.308;20.994;2023-05-10T02:46:51;9.40;99.90
17483;DHT22;8858;52.308;20.994;2023-05-10T02:49:22;9.40;99.90
17483;DHT22;8858;52.308;20.994;2023-05-10T02:51:56;9.30;99.90
17483;DHT22;8858;52.308;20.994;2023-05-10T02:54:29;9.30;99.90
17483;DHT22;8858;52.308;20.994;2023-05-10T02:56:58;9.30;99.90
17483;DHT22;8858;52.308;20.994;2023-05-10T02:59:27;9.20;99.90
17483;DHT22;8858;52.308;20.994;2023-05-10T03:01:55;9.20;99.90
17483;DHT22;8858;52.308;20.994;2023-05-10T03:04:28;9.10;99.90
17483;DHT22;8858;52.308;20.994;2023-05-10T03:06:57;9.10;99.90
17483;DHT22;8858;52.308;20.994;2023-05-10T03:09:26;9.10;99.90
17483;DHT22;8858;52.308;20.994;2023-05-10T03:12:02;9.10;99.90
17483;DHT22;8858;52.308;20.994;2023-05-10T03:14:42;9.20;99.90
17483;DHT22;8858;52.308;20.994;2023-05-10T03:17:22;9.20;99.90
17483;DHT22;8858;52.308;20.994;2023-05-10T03:19:55;9.30;99.90
17483;DHT22;8858;52.308;20.994;2023-05-10T03:22:27;9.20;99.90
17483;DHT22;8858;52.308;20.994;2023-05-10T03:25:00;9.20;99.90
17483;DHT22;8858;52.308;20.994;2023-05-10T03:27:36;9.20;99.90
17483;DHT22;8858;52.308;20.994;2023-05-10T03:30:09;9.20;99.90
17483;DHT22;8858;52.308;20.994;2023-05-10T03:32:42;9.20;99.90
17483;DHT22;8858;52.308;20.994;2023-05-10T03:35:13;9.20;99.90
17483;DHT22;8858;52.308;20.994;2023-05-10T03:37:42;9.20;99.90
17483;DHT22;8858;52.308;20.994;2023-05-10T03:40:11;9.20;99.90
17483;DHT22;8858;52.308;20.994;2023-05-10T03:42:42;9.30;99.90
17483;DHT22;8858;52.308;20.994;2023-05-10T03:45:10;9.30;99.90
17483;DHT22;8858;52.308;20.994;2023-05-10T03:47:42;9.30;99.90
17483;DHT22;8858;52.308;20.994;2023-05-10T03:50:12;9.40;99.90
17483;DHT22;8858;52.308;20.994;2023-05-10T03:52:41;9.40;99.90
17483;DHT22;8858;52.308;20.994;2023-05-10T03:55:11;9.40;99.90
17483;DHT22;8858;52.308;20.994;2023-05-10T03:57:39;9.40;99.90
17483;DHT22;8858;52.308;20.994;2023-05-10T04:00:12;9.40;99.90
17483;DHT22;8858;52.308;20.994;2023-05-10T04:02:48;9.50;99.90
17483;DHT22;8858;52.308;20.994;2023-05-10T04:05:21;9.60;99.90
17483;DHT22;8858;52.308;20.994;2023-05-10T04:07:53;9.60;99.90
17483;DHT22;8858;52.308;20.994;2023-05-10T04:10:21;9.60;99.90
17483;DHT22;8858;52.308;20.994;2023-05-10T04:12:49;9.70;99.90
17483;DHT22;8858;52.308;20.994;2023-05-10T04:15:18;9.60;99.80
17483;DHT22;8858;52.308;20.994;2023-05-10T04:17:47;9.70;99.70
17483;DHT22;8858;52.308;20.994;2023-05-10T04:20:16;9.80;99.90
17483;DHT22;8858;52.308;20.994;2023-05-10T04:22:45;9.80;99.90
17483;DHT22;8858;52.308;20.994;2023-05-10T04:25:14;9.90;99.70
17483;DHT22;8858;52.308;20.994;2023-05-10T04:27:43;9.90;99.70
17483;DHT22;8858;52.308;20.994;2023-05-10T04:30:15;10.00;99.70
17483;DHT22;8858;52.308;20.994;2023-05-10T04:32:43;10.00;99.80
17483;DHT22;8858;52.308;20.994;2023-05-10T04:35:12;10.10;99.60
17483;DHT22;8858;52.308;20.994;2023-05-10T04:37:45;10.20;99.30
17483;DHT22;8858;52.308;20.994;2023-05-10T04:40:14;10.20;99.30
17483;DHT22;8858;52.308;20.994;2023-05-10T04:42:45;10.30;99.10
17483;DHT22;8858;52.308;20.994;2023-05-10T04:45:13;10.40;99.00
17483;DHT22;8858;52.308;20.994;2023-05-10T04:47:42;10.50;99.10
17483;DHT22;8858;52.308;20.994;2023-05-10T04:50:12;10.60;99.10
17483;DHT22;8858;52.308;20.994;2023-05-10T04:52:41;10.60;98.70
17483;DHT22;8858;52.308;20.994;2023-05-10T04:55:13;10.70;98.60
17483;DHT22;8858;52.308;20.994;2023-05-10T04:57:41;10.70;98.60
17483;DHT22;8858;52.308;20.994;2023-05-10T05:00:10;10.80;98.60
17483;DHT22;8858;52.308;20.994;2023-05-10T05:02:42;10.90;98.50
17483;DHT22;8858;52.308;20.994;2023-05-10T05:05:11;11.00;98.60
17483;DHT22;8858;52.308;20.994;2023-05-10T05:07:40;11.00;98.30
17483;DHT22;8858;52.308;20.994;2023-05-10T05:10:09;11.10;98.40
17483;DHT22;8858;52.308;20.994;2023-05-10T05:12:39;11.10;98.30
17483;DHT22;8858;52.308;20.994;2023-05-10T05:15:07;11.10;98.20
17483;DHT22;8858;52.308;20.994;2023-05-10T05:17:37;11.20;98.30
17483;DHT22;8858;52.308;20.994;2023-05-10T05:20:09;11.30;97.90
17483;DHT22;8858;52.308;20.994;2023-05-10T05:22:41;11.30;98.10
17483;DHT22;8858;52.308;20.994;2023-05-10T05:25:10;11.40;97.90
17483;DHT22;8858;52.308;20.994;2023-05-10T05:27:39;11.50;97.80
17483;DHT22;8858;52.308;20.994;2023-05-10T05:30:09;11.60;98.00
17483;DHT22;8858;52.308;20.994;2023-05-10T05:32:37;11.70;97.70
17483;DHT22;8858;52.308;20.994;2023-05-10T05:35:10;11.70;97.90
17483;DHT22;8858;52.308;20.994;2023-05-10T05:37:39;11.70;97.60
17483;DHT22;8858;52.308;20.994;2023-05-10T05:40:11;11.80;97.60
17483;DHT22;8858;52.308;20.994;2023-05-10T05:42:41;11.80;97.80
17483;DHT22;8858;52.308;20.994;2023-05-10T05:45:09;11.90;97.80
17483;DHT22;8858;52.308;20.994;2023-05-10T05:47:40;12.00;97.60
17483;DHT22;8858;52.308;20.994;2023-05-10T05:50:09;12.00;98.00
17483;DHT22;8858;52.308;20.994;2023-05-10T05:52:37;12.10;97.50
17483;DHT22;8858;52.308;20.994;2023-05-10T05:55:06;12.20;97.20
17483;DHT22;8858;52.308;20.994;2023-05-10T05:57:36;12.20;97.10
17483;DHT22;8858;52.308;20.994;2023-05-10T06:00:09;12.20;97.10
17483;DHT22;8858;52.308;20.994;2023-05-10T06:02:40;12.20;97.30
17483;DHT22;8858;52.308;20.994;2023-05-10T06:05:09;12.30;97.20
17483;DHT22;8858;52.308;20.994;2023-05-10T06:07:37;12.30;97.30
17483;DHT22;8858;52.308;20.994;2023-05-10T06:10:07;12.40;97.50
17483;DHT22;8858;52.308;20.994;2023-05-10T06:12:35;12.50;97.30
17483;DHT22;8858;52.308;20.994;2023-05-10T06:15:04;12.60;97.40
17483;DHT22;8858;52.308;20.994;2023-05-10T06:17:34;12.60;97.10
17483;DHT22;8858;52.308;20.994;2023-05-10T06:20:02;12.80;97.10
17483;DHT22;8858;52.308;20.994;2023-05-10T06:22:30;12.80;96.70
17483;DHT22;8858;52.308;20.994;2023-05-10T06:24:58;12.80;96.90
17483;DHT22;8858;52.308;20.994;2023-05-10T06:27:27;12.90;96.80
17483;DHT22;8858;52.308;20.994;2023-05-10T06:29:56;12.90;96.60
17483;DHT22;8858;52.308;20.994;2023-05-10T06:32:39;13.00;96.50
17483;DHT22;8858;52.308;20.994;2023-05-10T06:35:08;13.10;96.20
17483;DHT22;8858;52.308;20.994;2023-05-10T06:37:36;13.20;96.20
17483;DHT22;8858;52.308;20.994;2023-05-10T06:40:06;13.30;96.10
17483;DHT22;8858;52.308;20.994;2023-05-10T06:42:37;13.30;96.30
17483;DHT22;8858;52.308;20.994;2023-05-10T06:45:08;13.40;96.10
17483;DHT22;8858;52.308;20.994;2023-05-10T06:47:36;13.50;96.20
17483;DHT22;8858;52.308;20.994;2023-05-10T06:50:07;13.50;96.40
17483;DHT22;8858;52.308;20.994;2023-05-10T06:52:35;13.60;96.00
17483;DHT22;8858;52.308;20.994;2023-05-10T06:55:07;13.70;96.10
17483;DHT22;8858;52.308;20.994;2023-05-10T06:57:36;13.80;95.30
17483;DHT22;8858;52.308;20.994;2023-05-10T07:00:05;13.80;94.70
17483;DHT22;8858;52.308;20.994;2023-05-10T07:02:35;13.90;95.00
17483;DHT22;8858;52.308;20.994;2023-05-10T07:05:03;13.90;94.50
17483;DHT22;8858;52.308;20.994;2023-05-10T07:07:36;14.00;94.30
17483;DHT22;8858;52.308;20.994;2023-05-10T07:10:05;14.10;94.20
17483;DHT22;8858;52.308;20.994;2023-05-10T07:12:35;14.10;93.30
17483;DHT22;8858;52.308;20.994;2023-05-10T07:15:04;14.10;93.90
17483;DHT22;8858;52.308;20.994;2023-05-10T07:17:32;14.30;94.10
17483;DHT22;8858;52.308;20.994;2023-05-10T07:20:01;14.30;92.50
17483;DHT22;8858;52.308;20.994;2023-05-10T07:22:31;14.40;92.40
17483;DHT22;8858;52.308;20.994;2023-05-10T07:25:01;14.40;92.80
17483;DHT22;8858;52.308;20.994;2023-05-10T07:27:29;14.50;92.10
17483;DHT22;8858;52.308;20.994;2023-05-10T07:29:57;14.60;91.80
17483;DHT22;8858;52.308;20.994;2023-05-10T07:32:25;14.60;91.90
17483;DHT22;8858;52.308;20.994;2023-05-10T07:34:53;14.60;92.00
17483;DHT22;8858;52.308;20.994;2023-05-10T07:37:22;14.80;91.70
17483;DHT22;8858;52.308;20.994;2023-05-10T07:39:50;14.80;92.00
17483;DHT22;8858;52.308;20.994;2023-05-10T07:42:20;14.80;91.90
17483;DHT22;8858;52.308;20.994;2023-05-10T07:44:48;14.90;90.90
17483;DHT22;8858;52.308;20.994;2023-05-10T07:47:19;14.90;91.00
17483;DHT22;8858;52.308;20.994;2023-05-10T07:49:47;15.00;91.70
17483;DHT22;8858;52.308;20.994;2023-05-10T07:52:19;15.00;91.80
17483;DHT22;8858;52.308;20.994;2023-05-10T07:54:48;15.10;92.20
17483;DHT22;8858;52.308;20.994;2023-05-10T07:57:17;15.10;91.50
17483;DHT22;8858;52.308;20.994;2023-05-10T07:59:48;15.20;91.10
17483;DHT22;8858;52.308;20.994;2023-05-10T08:02:16;15.20;90.20
17483;DHT22;8858;52.308;20.994;2023-05-10T08:04:47;15.30;90.60
17483;DHT22;8858;52.308;20.994;2023-05-10T08:07:15;15.40;90.30
17483;DHT22;8858;52.308;20.994;2023-05-10T08:09:43;15.40;89.70
17483;DHT22;8858;52.308;20.994;2023-05-10T08:12:11;15.50;88.50
17483;DHT22;8858;52.308;20.994;2023-05-10T08:14:40;15.40;87.30
17483;DHT22;8858;52.308;20.994;2023-05-10T08:17:10;15.50;88.10
17483;DHT22;8858;52.308;20.994;2023-05-10T08:19:38;15.50;88.40
17483;DHT22;8858;52.308;20.994;2023-05-10T08:22:10;15.50;87.60
17483;DHT22;8858;52.308;20.994;2023-05-10T08:24:38;15.60;87.50
17483;DHT22;8858;52.308;20.994;2023-05-10T08:27:08;15.60;87.10
17483;DHT22;8858;52.308;20.994;2023-05-10T08:29:37;15.70;86.30
17483;DHT22;8858;52.308;20.994;2023-05-10T08:32:18;15.60;87.60
17483;DHT22;8858;52.308;20.994;2023-05-10T08:34:49;15.70;85.10
17483;DHT22;8858;52.308;20.994;2023-05-10T08:37:17;15.60;84.90
17483;DHT22;8858;52.308;20.994;2023-05-10T08:39:46;15.60;85.90
17483;DHT22;8858;52.308;20.994;2023-05-10T08:42:19;15.60;85.70
17483;DHT22;8858;52.308;20.994;2023-05-10T08:44:49;15.60;84.80
17483;DHT22;8858;52.308;20.994;2023-05-10T08:47:20;15.60;84.90
17483;DHT22;8858;52.308;20.994;2023-05-10T08:49:52;15.60;86.00
17483;DHT22;8858;52.308;20.994;2023-05-10T08:52:26;15.60;86.50
17483;DHT22;8858;52.308;20.994;2023-05-10T08:54:56;15.70;88.10
17483;DHT22;8858;52.308;20.994;2023-05-10T08:57:25;15.80;86.90
17483;DHT22;8858;52.308;20.994;2023-05-10T08:59:53;15.90;87.40
17483;DHT22;8858;52.308;20.994;2023-05-10T09:02:23;16.00;85.20
17483;DHT22;8858;52.308;20.994;2023-05-10T09:04:52;16.00;86.60
17483;DHT22;8858;52.308;20.994;2023-05-10T09:07:20;16.00;86.40
17483;DHT22;8858;52.308;20.994;2023-05-10T09:09:49;16.10;87.20
17483;DHT22;8858;52.308;20.994;2023-05-10T09:12:17;16.20;87.60
17483;DHT22;8858;52.308;20.994;2023-05-10T09:14:49;16.20;86.40
17483;DHT22;8858;52.308;20.994;2023-05-10T09:17:18;16.30;87.00
17483;DHT22;8858;52.308;20.994;2023-05-10T09:19:48;16.40;87.90
17483;DHT22;8858;52.308;20.994;2023-05-10T09:22:16;16.40;87.40
17483;DHT22;8858;52.308;20.994;2023-05-10T09:24:46;16.50;84.80
17483;DHT22;8858;52.308;20.994;2023-05-10T09:27:15;16.40;85.00
17483;DHT22;8858;52.308;20.994;2023-05-10T09:29:43;16.40;84.90
17483;DHT22;8858;52.308;20.994;2023-05-10T09:32:11;16.40;85.60
17483;DHT22;8858;52.308;20.994;2023-05-10T09:34:40;16.40;84.20
17483;DHT22;8858;52.308;20.994;2023-05-10T09:37:13;16.40;84.00
17483;DHT22;8858;52.308;20.994;2023-05-10T09:39:44;16.40;85.10
17483;DHT22;8858;52.308;20.994;2023-05-10T09:42:13;16.40;84.40
17483;DHT22;8858;52.308;20.994;2023-05-10T09:44:46;16.40;85.60
17483;DHT22;8858;52.308;20.994;2023-05-10T09:47:17;16.50;86.10
17483;DHT22;8858;52.308;20.994;2023-05-10T09:49:49;16.50;84.60
17483;DHT22;8858;52.308;20.994;2023-05-10T09:52:19;16.50;85.20
17483;DHT22;8858;52.308;20.994;2023-05-10T09:54:52;16.60;85.10
17483;DHT22;8858;52.308;20.994;2023-05-10T09:57:23;16.60;84.40
17483;DHT22;8858;52.308;20.994;2023-05-10T09:59:51;16.60;84.50
17483;DHT22;8858;52.308;20.994;2023-05-10T10:02:21;16.70;85.30
17483;DHT22;8858;52.308;20.994;2023-05-10T10:04:56;16.70;85.30
17483;DHT22;8858;52.308;20.994;2023-05-10T10:07:26;16.80;86.30
17483;DHT22;8858;52.308;20.994;2023-05-10T10:09:55;16.80;83.60
17483;DHT22;8858;52.308;20.994;2023-05-10T10:12:24;16.80;84.10
17483;DHT22;8858;52.308;20.994;2023-05-10T10:14:53;16.90;83.90
17483;DHT22;8858;52.308;20.994;2023-05-10T10:17:25;16.90;84.60
17483;DHT22;8858;52.308;20.994;2023-05-10T10:19:57;16.90;84.60
17483;DHT22;8858;52.308;20.994;2023-05-10T10:22:26;16.90;83.80
17483;DHT22;8858;52.308;20.994;2023-05-10T10:24:56;16.90;84.10
17483;DHT22;8858;52.308;20.994;2023-05-10T10:27:33;17.00;83.70
17483;DHT22;8858;52.308;20.994;2023-05-10T10:30:10;17.00;84.90
17483;DHT22;8858;52.308;20.994;2023-05-10T10:35:46;17.20;85.00
17483;DHT22;8858;52.308;20.994;2023-05-10T10:38:16;17.20;83.50
17483;DHT22;8858;52.308;20.994;2023-05-10T10:40:44;17.30;84.10
17483;DHT22;8858;52.308;20.994;2023-05-10T10:43:22;17.30;84.20
17483;DHT22;8858;52.308;20.994;2023-05-10T10:46:12;17.40;85.10
17483;DHT22;8858;52.308;20.994;2023-05-10T10:48:47;17.40;85.30
17483;DHT22;8858;52.308;20.994;2023-05-10T10:51:16;17.50;85.20
17483;DHT22;8858;52.308;20.994;2023-05-10T10:53:50;17.50;85.00
17483;DHT22;8858;52.308;20.994;2023-05-10T10:56:22;17.60;84.70
17483;DHT22;8858;52.308;20.994;2023-05-10T10:58:51;17.60;82.20
17483;DHT22;8858;52.308;20.994;2023-05-10T11:01:21;17.70;81.20
17483;DHT22;8858;52.308;20.994;2023-05-10T11:04:17;17.70;81.90
17483;DHT22;8858;52.308;20.994;2023-05-10T11:06:47;17.80;81.30
17483;DHT22;8858;52.308;20.994;2023-05-10T11:09:17;17.80;81.90
17483;DHT22;8858;52.308;20.994;2023-05-10T11:11:51;17.90;82.50
17483;DHT22;8858;52.308;20.994;2023-05-10T11:14:22;17.90;82.70
17483;DHT22;8858;52.308;20.994;2023-05-10T11:16:51;18.00;84.30
17483;DHT22;8858;52.308;20.994;2023-05-10T11:19:20;18.10;81.90
17483;DHT22;8858;52.308;20.994;2023-05-10T11:21:50;18.30;81.30
17483;DHT22;8858;52.308;20.994;2023-05-10T11:24:22;18.30;82.00
17483;DHT22;8858;52.308;20.994;2023-05-10T11:26:51;18.40;80.90
17483;DHT22;8858;52.308;20.994;2023-05-10T11:29:19;18.50;81.60
17483;DHT22;8858;52.308;20.994;2023-05-10T11:31:48;18.50;80.40
17483;DHT22;8858;52.308;20.994;2023-05-10T11:34:24;18.50;82.40
17483;DHT22;8858;52.308;20.994;2023-05-10T11:36:54;18.50;81.00
17483;DHT22;8858;52.308;20.994;2023-05-10T11:39:27;18.70;81.20
17483;DHT22;8858;52.308;20.994;2023-05-10T11:41:56;18.80;81.40
17483;DHT22;8858;52.308;20.994;2023-05-10T11:44:29;18.80;79.80
17483;DHT22;8858;52.308;20.994;2023-05-10T11:47:01;18.80;80.40
17483;DHT22;8858;52.308;20.994;2023-05-10T11:49:32;18.80;80.50
17483;DHT22;8858;52.308;20.994;2023-05-10T11:52:04;18.80;80.40
17483;DHT22;8858;52.308;20.994;2023-05-10T11:54:35;18.80;81.30
17483;DHT22;8858;52.308;20.994;2023-05-10T11:57:03;18.80;81.90
17483;DHT22;8858;52.308;20.994;2023-05-10T11:59:31;18.80;82.00
17483;DHT22;8858;52.308;20.994;2023-05-10T12:02:03;19.00;79.80
17483;DHT22;8858;52.308;20.994;2023-05-10T12:04:31;19.10;78.00
17483;DHT22;8858;52.308;20.994;2023-05-10T12:07:01;19.20;80.50
17483;DHT22;8858;52.308;20.994;2023-05-10T12:09:30;19.30;78.10
17483;DHT22;8858;52.308;20.994;2023-05-10T12:12:16;19.40;79.10
17483;DHT22;8858;52.308;20.994;2023-05-10T12:14:44;19.50;80.10
17483;DHT22;8858;52.308;20.994;2023-05-10T12:17:16;19.60;79.90
17483;DHT22;8858;52.308;20.994;2023-05-10T12:19:44;19.80;80.40
17483;DHT22;8858;52.308;20.994;2023-05-10T12:22:14;19.90;79.40
17483;DHT22;8858;52.308;20.994;2023-05-10T12:24:42;20.10;77.50
17483;DHT22;8858;52.308;20.994;2023-05-10T12:27:14;20.20;77.50
17483;DHT22;8858;52.308;20.994;2023-05-10T12:29:43;20.20;75.60
17483;DHT22;8858;52.308;20.994;2023-05-10T12:32:12;20.30;77.80
17483;DHT22;8858;52.308;20.994;2023-05-10T12:34:41;20.50;78.90
17483;DHT22;8858;52.308;20.994;2023-05-10T12:37:12;20.70;78.70
17483;DHT22;8858;52.308;20.994;2023-05-10T12:39:41;20.90;77.90
17483;DHT22;8858;52.308;20.994;2023-05-10T12:42:10;21.00;77.30
17483;DHT22;8858;52.308;20.994;2023-05-10T12:44:41;21.10;77.10
17483;DHT22;8858;52.308;20.994;2023-05-10T12:47:09;21.10;76.20
17483;DHT22;8858;52.308;20.994;2023-05-10T12:49:38;21.20;77.20
17483;DHT22;8858;52.308;20.994;2023-05-10T12:52:07;21.40;77.10
17483;DHT22;8858;52.308;20.994;2023-05-10T12:54:36;21.50;72.60
17483;DHT22;8858;52.308;20.994;2023-05-10T12:57:04;21.60;75.20
17483;DHT22;8858;52.308;20.994;2023-05-10T12:59:36;21.70;75.60
17483;DHT22;8858;52.308;20.994;2023-05-10T13:02:06;21.90;74.30
17483;DHT22;8858;52.308;20.994;2023-05-10T13:04:34;22.00;73.00
17483;DHT22;8858;52.308;20.994;2023-05-10T13:07:04;22.30;73.30
17483;DHT22;8858;52.308;20.994;2023-05-10T13:09:34;22.40;72.40
17483;DHT22;8858;52.308;20.994;2023-05-10T13:12:06;22.60;72.60
17483;DHT22;8858;52.308;20.994;2023-05-10T13:14:39;23.10;72.70
17483;DHT22;8858;52.308;20.994;2023-05-10T13:17:13;23.70;71.80
17483;DHT22;8858;52.308;20.994;2023-05-10T13:19:41;24.20;71.50
17483;DHT22;8858;52.308;20.994;2023-05-10T13:22:11;25.00;70.60
17483;DHT22;8858;52.308;20.994;2023-05-10T13:24:43;26.00;69.00
17483;DHT22;8858;52.308;20.994;2023-05-10T13:27:14;27.60;67.00
17483;DHT22;8858;52.308;20.994;2023-05-10T13:29:43;28.50;64.80
17483;DHT22;8858;52.308;20.994;2023-05-10T13:32:16;29.70;63.40
17483;DHT22;8858;52.308;20.994;2023-05-10T13:34:48;31.00;61.30
17483;DHT22;8858;52.308;20.994;2023-05-10T13:37:17;31.90;59.90
17483;DHT22;8858;52.308;20.994;2023-05-10T13:39:46;32.30;58.60
17483;DHT22;8858;52.308;20.994;2023-05-10T13:42:14;33.10;58.70
17483;DHT22;8858;52.308;20.994;2023-05-10T13:44:43;34.40;55.70
17483;DHT22;8858;52.308;20.994;2023-05-10T13:47:12;34.10;54.50
17483;DHT22;8858;52.308;20.994;2023-05-10T13:49:42;35.50;54.90
17483;DHT22;8858;52.308;20.994;2023-05-10T13:52:10;35.40;52.70
17483;DHT22;8858;52.308;20.994;2023-05-10T13:54:39;34.90;52.10
17483;DHT22;8858;52.308;20.994;2023-05-10T13:57:10;35.60;53.10
17483;DHT22;8858;52.308;20.994;2023-05-10T13:59:43;35.60;52.30
17483;DHT22;8858;52.308;20.994;2023-05-10T14:02:13;35.20;50.90
17483;DHT22;8858;52.308;20.994;2023-05-10T14:04:42;34.30;52.20
17483;DHT22;8858;52.308;20.994;2023-05-10T14:07:11;33.40;53.10
17483;DHT22;8858;52.308;20.994;2023-05-10T14:09:39;34.60;51.90
17483;DHT22;8858;52.308;20.994;2023-05-10T14:12:07;34.90;50.90
17483;DHT22;8858;52.308;20.994;2023-05-10T14:14:36;33.80;50.20
17483;DHT22;8858;52.308;20.994;2023-05-10T14:17:04;34.50;49.90
17483;DHT22;8858;52.308;20.994;2023-05-10T14:19:32;33.80;50.40
17483;DHT22;8858;52.308;20.994;2023-05-10T14:22:02;34.70;49.80
17483;DHT22;8858;52.308;20.994;2023-05-10T14:24:31;34.80;49.40
17483;DHT22;8858;52.308;20.994;2023-05-10T14:26:59;34.90;49.00
17483;DHT22;8858;52.308;20.994;2023-05-10T14:29:27;33.40;50.60
17483;DHT22;8858;52.308;20.994;2023-05-10T14:31:56;35.10;50.50
17483;DHT22;8858;52.308;20.994;2023-05-10T14:34:25;34.20;49.90
17483;DHT22;8858;52.308;20.994;2023-05-10T14:36:53;33.60;50.40
17483;DHT22;8858;52.308;20.994;2023-05-10T14:39:23;34.90;50.00
17483;DHT22;8858;52.308;20.994;2023-05-10T14:41:54;34.60;48.00
17483;DHT22;8858;52.308;20.994;2023-05-10T14:44:22;34.80;49.00
17483;DHT22;8858;52.308;20.994;2023-05-10T14:46:51;33.70;48.70
17483;DHT22;8858;52.308;20.994;2023-05-10T14:49:19;33.20;48.90
17483;DHT22;8858;52.308;20.994;2023-05-10T14:51:49;32.90;49.70
17483;DHT22;8858;52.308;20.994;2023-05-10T14:54:22;33.40;49.70
17483;DHT22;8858;52.308;20.994;2023-05-10T14:56:51;34.10;49.70
17483;DHT22;8858;52.308;20.994;2023-05-10T14:59:20;34.30;48.90
17483;DHT22;8858;52.308;20.994;2023-05-10T15:01:49;33.50;49.10
17483;DHT22;8858;52.308;20.994;2023-05-10T15:04:18;32.50;50.20
17483;DHT22;8858;52.308;20.994;2023-05-10T15:06:47;31.50;50.60
17483;DHT22;8858;52.308;20.994;2023-05-10T15:09:17;31.40;51.20
17483;DHT22;8858;52.308;20.994;2023-05-10T15:11:47;31.40;51.60
17483;DHT22;8858;52.308;20.994;2023-05-10T15:14:19;31.40;51.40
17483;DHT22;8858;52.308;20.994;2023-05-10T15:16:47;31.50;50.80
17483;DHT22;8858;52.308;20.994;2023-05-10T15:19:15;32.20;50.30
17483;DHT22;8858;52.308;20.994;2023-05-10T15:21:46;33.30;49.40
17483;DHT22;8858;52.308;20.994;2023-05-10T15:24:15;32.00;49.60
17483;DHT22;8858;52.308;20.994;2023-05-10T15:26:43;31.80;50.00
17483;DHT22;8858;52.308;20.994;2023-05-10T15:29:14;31.90;49.80
17483;DHT22;8858;52.308;20.994;2023-05-10T15:31:47;32.50;50.10
17483;DHT22;8858;52.308;20.994;2023-05-10T15:34:20;31.80;49.80
17483;DHT22;8858;52.308;20.994;2023-05-10T15:36:53;30.30;50.20
17483;DHT22;8858;52.308;20.994;2023-05-10T15:39:21;30.00;51.60
17483;DHT22;8858;52.308;20.994;2023-05-10T15:41:51;28.80;51.60
17483;DHT22;8858;52.308;20.994;2023-05-10T15:44:25;28.60;52.30
17483;DHT22;8858;52.308;20.994;2023-05-10T15:46:55;27.80;52.90
17483;DHT22;8858;52.308;20.994;2023-05-10T15:49:24;27.90;53.10
17483;DHT22;8858;52.308;20.994;2023-05-10T15:51:52;27.50;53.00
17483;DHT22;8858;52.308;20.994;2023-05-10T15:54:22;27.60;53.90
17483;DHT22;8858;52.308;20.994;2023-05-10T15:56:51;27.10;55.00